sensor_id;sensor_type;location;lat;lon;timestamp;P1;durP1;ratioP1;P2;durP2;ratioP2
31438;SDS011;18062;48.872;9.220;2023-11-19T00:00:38;5.13;;;1.93;;
31438;SDS011;18062;48.872;9.220;2023-11-19T00:03:04;2.30;;;1.80;;
31438;SDS011;18062;48.872;9.220;2023-11-19T00:05:31;2.27;;;2.00;;
31438;SDS011;18062;48.872;9.220;2023-11-19T00:07:57;3.43;;;1.57;;
31438;SDS011;18062;48.872;9.220;2023-11-19T00:10:23;2.23;;;1.83;;
31438;SDS011;18062;48.872;9.220;2023-11-19T00:12:49;2.87;;;2.10;;
31438;SDS011;18062;48.872;9.220;2023-11-19T00:15:15;2.23;;;1.90;;
31438;SDS011;18062;48.872;9.220;2023-11-19T00:17:44;2.23;;;1.90;;
31438;SDS011;18062;48.872;9.220;2023-11-19T00:20:11;4.07;;;1.80;;
31438;SDS011;18062;48.872;9.220;2023-11-19T00:22:37;1.93;;;1.83;;
31438;SDS011;18062;48.872;9.220;2023-11-19T00:25:04;3.00;;;2.03;;
31438;SDS011;18062;48.872;9.220;2023-11-19T00:27:30;2.30;;;1.63;;
31438;SDS011;18062;48.872;9.220;2023-11-19T00:29:56;1.90;;;1.70;;
31438;SDS011;18062;48.872;9.220;2023-11-19T00:32:23;1.83;;;1.60;;
31438;SDS011;18062;48.872;9.220;2023-11-19T00:34:49;2.47;;;1.97;;
31438;SDS011;18062;48.872;9.220;2023-11-19T00:37:15;1.80;;;1.50;;
31438;SDS011;18062;48.872;9.220;2023-11-19T00:39:41;5.17;;;2.07;;
31438;SDS011;18062;48.872;9.220;2023-11-19T00:42:08;1.90;;;1.70;;
31438;SDS011;18062;48.872;9.220;2023-11-19T00:44:35;2.77;;;1.90;;
31438;SDS011;18062;48.872;9.220;2023-11-19T00:47:01;4.33;;;2.00;;
31438;SDS011;18062;48.872;9.220;2023-11-19T00:49:27;2.53;;;1.90;;
31438;SDS011;18062;48.872;9.220;2023-11-19T00:51:53;1.70;;;1.60;;
31438;SDS011;18062;48.872;9.220;2023-11-19T00:54:19;2.13;;;1.60;;
31438;SDS011;18062;48.872;9.220;2023-11-19T00:56:46;2.30;;;2.10;;
31438;SDS011;18062;48.872;9.220;2023-11-19T00:59:12;5.83;;;1.87;;
31438;SDS011;18062;48.872;9.220;2023-11-19T01:01:39;2.20;;;1.90;;
31438;SDS011;18062;48.872;9.220;2023-11-19T01:04:05;3.80;;;2.23;;
31438;SDS011;18062;48.872;9.220;2023-11-19T01:06:31;3.13;;;1.80;;
31438;SDS011;18062;48.872;9.220;2023-11-19T01:08:58;4.30;;;2.53;;
31438;SDS011;18062;48.872;9.220;2023-11-19T01:11:24;3.60;;;2.50;;
31438;SDS011;18062;48.872;9.220;2023-11-19T01:13:51;4.77;;;2.33;;
31438;SDS011;18062;48.872;9.220;2023-11-19T01:16:17;2.57;;;2.07;;
31438;SDS011;18062;48.872;9.220;2023-11-19T01:18:44;3.60;;;2.27;;
31438;SDS011;18062;48.872;9.220;2023-11-19T01:21:10;4.60;;;2.10;;
31438;SDS011;18062;48.872;9.220;2023-11-19T01:23:36;2.33;;;2.00;;
31438;SDS011;18062;48.872;9.220;2023-11-19T01:26:02;3.20;;;2.23;;
31438;SDS011;18062;48.872;9.220;2023-11-19T01:28:30;4.00;;;2.27;;
31438;SDS011;18062;48.872;9.220;2023-11-19T01:30:56;2.60;;;1.80;;
31438;SDS011;18062;48.872;9.220;2023-11-19T01:33:22;2.50;;;2.00;;
31438;SDS011;18062;48.872;9.220;2023-11-19T01:35:48;3.17;;;2.20;;
31438;SDS011;18062;48.872;9.220;2023-11-19T01:38:14;3.37;;;1.97;;
31438;SDS011;18062;48.872;9.220;2023-11-19T01:40:40;2.67;;;1.83;;
31438;SDS011;18062;48.872;9.220;2023-11-19T01:43:07;2.20;;;1.53;;
31438;SDS011;18062;48.872;9.220;2023-11-19T01:45:36;3.10;;;2.20;;
31438;SDS011;18062;48.872;9.220;2023-11-19T01:48:03;1.93;;;1.77;;
31438;SDS011;18062;48.872;9.220;2023-11-19T01:50:29;2.53;;;2.00;;
31438;SDS011;18062;48.872;9.220;2023-11-19T01:52:56;3.53;;;2.07;;
31438;SDS011;18062;48.872;9.220;2023-11-19T01:55:22;1.93;;;1.70;;
31438;SDS011;18062;48.872;9.220;2023-11-19T01:57:53;2.67;;;1.67;;
31438;SDS011;18062;48.872;9.220;2023-11-19T02:00:20;1.90;;;1.63;;
31438;SDS011;18062;48.872;9.220;2023-11-19T02:02:46;2.77;;;2.00;;
31438;SDS011;18062;48.872;9.220;2023-11-19T02:05:13;1.90;;;1.60;;
31438;SDS011;18062;48.872;9.220;2023-11-19T02:07:39;3.23;;;2.20;;
31438;SDS011;18062;48.872;9.220;2023-11-19T02:10:06;3.47;;;1.70;;
31438;SDS011;18062;48.872;9.220;2023-11-19T02:12:33;3.13;;;2.00;;
31438;SDS011;18062;48.872;9.220;2023-11-19T02:14:59;2.33;;;1.40;;
31438;SDS011;18062;48.872;9.220;2023-11-19T02:17:26;3.23;;;1.50;;
31438;SDS011;18062;48.872;9.220;2023-11-19T02:19:52;1.87;;;1.50;;
31438;SDS011;18062;48.872;9.220;2023-11-19T02:22:19;1.43;;;1.30;;
31438;SDS011;18062;48.872;9.220;2023-11-19T02:24:45;1.30;;;1.20;;
31438;SDS011;18062;48.872;9.220;2023-11-19T02:27:16;2.23;;;1.40;;
31438;SDS011;18062;48.872;9.220;2023-11-19T02:29:45;1.60;;;1.30;;
31438;SDS011;18062;48.872;9.220;2023-11-19T02:32:12;1.30;;;1.20;;
31438;SDS011;18062;48.872;9.220;2023-11-19T02:34:38;1.27;;;1.10;;
31438;SDS011;18062;48.872;9.220;2023-11-19T02:37:04;1.27;;;1.17;;
31438;SDS011;18062;48.872;9.220;2023-11-19T02:39:30;1.33;;;1.23;;
31438;SDS011;18062;48.872;9.220;2023-11-19T02:41:56;2.93;;;1.20;;
31438;SDS011;18062;48.872;9.220;2023-11-19T02:44:22;1.87;;;1.27;;
31438;SDS011;18062;48.872;9.220;2023-11-19T02:46:49;1.60;;;1.20;;
31438;SDS011;18062;48.872;9.220;2023-11-19T02:49:15;1.30;;;1.20;;
31438;SDS011;18062;48.872;9.220;2023-11-19T02:51:41;1.07;;;1.00;;
31438;SDS011;18062;48.872;9.220;2023-11-19T02:54:07;1.37;;;1.27;;
31438;SDS011;18062;48.872;9.220;2023-11-19T02:56:33;1.33;;;1.23;;
31438;SDS011;18062;48.872;9.220;2023-11-19T02:59:02;1.23;;;1.13;;
31438;SDS011;18062;48.872;9.220;2023-11-19T03:01:51;1.50;;;1.40;;
31438;SDS011;18062;48.872;9.220;2023-11-19T03:04:17;1.20;;;1.10;;
31438;SDS011;18062;48.872;9.220;2023-11-19T03:06:45;1.67;;;1.20;;
31438;SDS011;18062;48.872;9.220;2023-11-19T03:09:11;1.30;;;1.20;;
31438;SDS011;18062;48.872;9.220;2023-11-19T03:11:37;1.20;;;1.10;;
31438;SDS011;18062;48.872;9.220;2023-11-19T03:14:03;1.20;;;1.10;;
31438;SDS011;18062;48.872;9.220;2023-11-19T03:16:29;1.30;;;1.20;;
31438;SDS011;18062;48.872;9.220;2023-11-19T03:18:55;1.40;;;1.30;;
31438;SDS011;18062;48.872;9.220;2023-11-19T03:21:31;1.20;;;1.10;;
31438;SDS011;18062;48.872;9.220;2023-11-19T03:23:57;1.40;;;1.30;;
31438;SDS011;18062;48.872;9.220;2023-11-19T03:26:27;2.73;;;2.13;;
31438;SDS011;18062;48.872;9.220;2023-11-19T03:28:53;3.70;;;2.20;;
31438;SDS011;18062;48.872;9.220;2023-11-19T03:31:19;2.77;;;2.10;;
31438;SDS011;18062;48.872;9.220;2023-11-19T03:33:45;3.70;;;2.47;;
31438;SDS011;18062;48.872;9.220;2023-11-19T03:36:11;2.67;;;2.37;;
31438;SDS011;18062;48.872;9.220;2023-11-19T03:38:37;3.83;;;2.60;;
31438;SDS011;18062;48.872;9.220;2023-11-19T03:41:10;5.27;;;2.30;;
31438;SDS011;18062;48.872;9.220;2023-11-19T03:43:37;2.80;;;1.83;;
31438;SDS011;18062;48.872;9.220;2023-11-19T03:46:03;2.90;;;2.10;;
31438;SDS011;18062;48.872;9.220;2023-11-19T03:48:30;3.60;;;2.30;;
31438;SDS011;18062;48.872;9.220;2023-11-19T03:50:56;2.30;;;2.10;;
31438;SDS011;18062;48.872;9.220;2023-11-19T03:53:23;3.20;;;2.60;;
31438;SDS011;18062;48.872;9.220;2023-11-19T03:55:49;3.63;;;2.40;;
31438;SDS011;18062;48.872;9.220;2023-11-19T03:58:15;3.77;;;2.50;;
31438;SDS011;18062;48.872;9.220;2023-11-19T04:00:41;2.87;;;2.57;;
31438;SDS011;18062;48.872;9.220;2023-11-19T04:03:07;2.83;;;2.37;;
31438;SDS011;18062;48.872;9.220;2023-11-19T04:05:33;3.37;;;2.27;;
31438;SDS011;18062;48.872;9.220;2023-11-19T04:07:59;2.20;;;1.97;;
31438;SDS011;18062;48.872;9.220;2023-11-19T04:10:25;3.33;;;1.70;;
31438;SDS011;18062;48.872;9.220;2023-11-19T04:12:52;2.33;;;1.90;;
31438;SDS011;18062;48.872;9.220;2023-11-19T04:15:18;2.70;;;2.30;;
31438;SDS011;18062;48.872;9.220;2023-11-19T04:17:44;2.33;;;2.13;;
31438;SDS011;18062;48.872;9.220;2023-11-19T04:20:11;3.03;;;2.20;;
31438;SDS011;18062;48.872;9.220;2023-11-19T04:22:38;2.40;;;2.00;;
31438;SDS011;18062;48.872;9.220;2023-11-19T04:25:05;2.80;;;2.23;;
31438;SDS011;18062;48.872;9.220;2023-11-19T04:27:32;3.43;;;2.40;;
31438;SDS011;18062;48.872;9.220;2023-11-19T04:29:58;2.43;;;2.20;;
31438;SDS011;18062;48.872;9.220;2023-11-19T04:32:25;3.33;;;2.03;;
31438;SDS011;18062;48.872;9.220;2023-11-19T04:34:52;4.00;;;2.40;;
31438;SDS011;18062;48.872;9.220;2023-11-19T04:37:18;2.73;;;1.87;;
31438;SDS011;18062;48.872;9.220;2023-11-19T04:39:44;2.00;;;1.80;;
31438;SDS011;18062;48.872;9.220;2023-11-19T04:42:11;2.10;;;1.83;;
31438;SDS011;18062;48.872;9.220;2023-11-19T04:44:37;2.53;;;1.90;;
31438;SDS011;18062;48.872;9.220;2023-11-19T04:47:03;4.27;;;2.10;;
31438;SDS011;18062;48.872;9.220;2023-11-19T04:49:29;2.50;;;2.10;;
31438;SDS011;18062;48.872;9.220;2023-11-19T04:51:55;3.03;;;2.00;;
31438;SDS011;18062;48.872;9.220;2023-11-19T04:54:21;2.10;;;1.90;;
31438;SDS011;18062;48.872;9.220;2023-11-19T04:56:48;3.13;;;2.20;;
31438;SDS011;18062;48.872;9.220;2023-11-19T04:59:14;2.17;;;1.97;;
31438;SDS011;18062;48.872;9.220;2023-11-19T05:01:40;2.17;;;1.97;;
31438;SDS011;18062;48.872;9.220;2023-11-19T05:04:07;1.90;;;1.70;;
31438;SDS011;18062;48.872;9.220;2023-11-19T05:06:34;1.90;;;1.70;;
31438;SDS011;18062;48.872;9.220;2023-11-19T05:09:00;2.23;;;1.80;;
31438;SDS011;18062;48.872;9.220;2023-11-19T05:11:29;1.80;;;1.60;;
31438;SDS011;18062;48.872;9.220;2023-11-19T05:13:56;2.27;;;2.03;;
31438;SDS011;18062;48.872;9.220;2023-11-19T05:16:22;1.63;;;1.50;;
31438;SDS011;18062;48.872;9.220;2023-11-19T05:18:48;1.83;;;1.50;;
31438;SDS011;18062;48.872;9.220;2023-11-19T05:21:14;2.27;;;1.60;;
31438;SDS011;18062;48.872;9.220;2023-11-19T05:23:40;2.67;;;1.77;;
31438;SDS011;18062;48.872;9.220;2023-11-19T05:26:06;1.93;;;1.73;;
31438;SDS011;18062;48.872;9.220;2023-11-19T05:28:33;1.80;;;1.70;;
31438;SDS011;18062;48.872;9.220;2023-11-19T05:30:59;1.60;;;1.50;;
31438;SDS011;18062;48.872;9.220;2023-11-19T05:33:25;2.10;;;1.90;;
31438;SDS011;18062;48.872;9.220;2023-11-19T05:35:51;2.90;;;1.97;;
31438;SDS011;18062;48.872;9.220;2023-11-19T05:38:17;2.23;;;1.80;;
31438;SDS011;18062;48.872;9.220;2023-11-19T05:40:43;2.03;;;1.83;;
31438;SDS011;18062;48.872;9.220;2023-11-19T05:43:09;2.77;;;2.40;;
31438;SDS011;18062;48.872;9.220;2023-11-19T05:45:35;2.70;;;2.27;;
31438;SDS011;18062;48.872;9.220;2023-11-19T05:48:01;3.73;;;2.03;;
31438;SDS011;18062;48.872;9.220;2023-11-19T05:50:29;1.20;;;0.93;;
31438;SDS011;18062;48.872;9.220;2023-11-19T05:52:55;2.63;;;0.70;;
31438;SDS011;18062;48.872;9.220;2023-11-19T05:55:21;0.73;;;0.70;;
31438;SDS011;18062;48.872;9.220;2023-11-19T05:57:48;0.50;;;0.50;;
31438;SDS011;18062;48.872;9.220;2023-11-19T06:00:16;0.60;;;0.60;;
31438;SDS011;18062;48.872;9.220;2023-11-19T06:02:43;0.40;;;0.40;;
31438;SDS011;18062;48.872;9.220;2023-11-19T06:05:09;0.40;;;0.40;;
31438;SDS011;18062;48.872;9.220;2023-11-19T06:07:35;0.43;;;0.43;;
31438;SDS011;18062;48.872;9.220;2023-11-19T06:10:04;0.60;;;0.50;;
31438;SDS011;18062;48.872;9.220;2023-11-19T06:12:32;0.50;;;0.50;;
31438;SDS011;18062;48.872;9.220;2023-11-19T06:14:59;0.40;;;0.40;;
31438;SDS011;18062;48.872;9.220;2023-11-19T06:17:25;0.40;;;0.40;;
31438;SDS011;18062;48.872;9.220;2023-11-19T06:19:51;0.40;;;0.40;;
31438;SDS011;18062;48.872;9.220;2023-11-19T06:22:17;0.40;;;0.40;;
31438;SDS011;18062;48.872;9.220;2023-11-19T06:24:43;0.30;;;0.30;;
31438;SDS011;18062;48.872;9.220;2023-11-19T06:27:09;0.50;;;0.50;;
31438;SDS011;18062;48.872;9.220;2023-11-19T06:29:35;0.43;;;0.43;;
31438;SDS011;18062;48.872;9.220;2023-11-19T06:32:01;0.70;;;0.70;;
31438;SDS011;18062;48.872;9.220;2023-11-19T06:34:27;1.20;;;1.00;;
31438;SDS011;18062;48.872;9.220;2023-11-19T06:36:53;1.00;;;0.90;;
31438;SDS011;18062;48.872;9.220;2023-11-19T06:39:19;0.60;;;0.60;;
31438;SDS011;18062;48.872;9.220;2023-11-19T06:41:46;0.60;;;0.60;;
31438;SDS011;18062;48.872;9.220;2023-11-19T06:44:12;0.50;;;0.50;;
31438;SDS011;18062;48.872;9.220;2023-11-19T06:46:38;0.67;;;0.50;;
31438;SDS011;18062;48.872;9.220;2023-11-19T06:49:05;0.87;;;0.60;;
31438;SDS011;18062;48.872;9.220;2023-11-19T06:51:33;0.50;;;0.50;;
31438;SDS011;18062;48.872;9.220;2023-11-19T06:53:59;0.67;;;0.53;;
31438;SDS011;18062;48.872;9.220;2023-11-19T06:56:25;2.10;;;0.50;;
31438;SDS011;18062;48.872;9.220;2023-11-19T06:58:52;0.50;;;0.50;;
31438;SDS011;18062;48.872;9.220;2023-11-19T07:01:18;0.47;;;0.47;;
31438;SDS011;18062;48.872;9.220;2023-11-19T07:03:47;0.30;;;0.30;;
31438;SDS011;18062;48.872;9.220;2023-11-19T07:06:13;0.47;;;0.47;;
31438;SDS011;18062;48.872;9.220;2023-11-19T07:08:42;0.43;;;0.43;;
31438;SDS011;18062;48.872;9.220;2023-11-19T07:11:09;0.90;;;0.57;;
31438;SDS011;18062;48.872;9.220;2023-11-19T07:13:36;0.50;;;0.50;;
31438;SDS011;18062;48.872;9.220;2023-11-19T07:16:02;0.73;;;0.43;;
31438;SDS011;18062;48.872;9.220;2023-11-19T07:18:29;0.60;;;0.60;;
31438;SDS011;18062;48.872;9.220;2023-11-19T07:20:55;0.40;;;0.40;;
31438;SDS011;18062;48.872;9.220;2023-11-19T07:23:21;0.50;;;0.40;;
31438;SDS011;18062;48.872;9.220;2023-11-19T07:25:47;0.40;;;0.40;;
31438;SDS011;18062;48.872;9.220;2023-11-19T07:28:15;0.43;;;0.43;;
31438;SDS011;18062;48.872;9.220;2023-11-19T07:30:41;0.23;;;0.23;;
31438;SDS011;18062;48.872;9.220;2023-11-19T07:33:07;2.63;;;0.50;;
31438;SDS011;18062;48.872;9.220;2023-11-19T07:35:33;0.40;;;0.40;;
31438;SDS011;18062;48.872;9.220;2023-11-19T07:38:00;1.93;;;0.53;;
31438;SDS011;18062;48.872;9.220;2023-11-19T07:40:26;0.30;;;0.30;;
31438;SDS011;18062;48.872;9.220;2023-11-19T07:42:52;0.50;;;0.50;;
31438;SDS011;18062;48.872;9.220;2023-11-19T07:45:19;0.40;;;0.40;;
31438;SDS011;18062;48.872;9.220;2023-11-19T07:47:45;0.53;;;0.53;;
31438;SDS011;18062;48.872;9.220;2023-11-19T07:50:11;0.47;;;0.47;;
31438;SDS011;18062;48.872;9.220;2023-11-19T07:52:39;0.50;;;0.50;;
31438;SDS011;18062;48.872;9.220;2023-11-19T07:55:05;0.37;;;0.37;;
31438;SDS011;18062;48.872;9.220;2023-11-19T07:57:31;0.40;;;0.40;;
31438;SDS011;18062;48.872;9.220;2023-11-19T07:59:57;0.57;;;0.57;;
31438;SDS011;18062;48.872;9.220;2023-11-19T08:02:23;0.60;;;0.60;;
31438;SDS011;18062;48.872;9.220;2023-11-19T08:04:50;1.67;;;0.60;;
31438;SDS011;18062;48.872;9.220;2023-11-19T08:07:17;1.03;;;0.57;;
31438;SDS011;18062;48.872;9.220;2023-11-19T08:09:49;1.93;;;0.40;;
31438;SDS011;18062;48.872;9.220;2023-11-19T08:12:15;1.27;;;0.70;;
31438;SDS011;18062;48.872;9.220;2023-11-19T08:14:42;0.40;;;0.40;;
31438;SDS011;18062;48.872;9.220;2023-11-19T08:17:09;0.50;;;0.50;;
31438;SDS011;18062;48.872;9.220;2023-11-19T08:19:35;0.60;;;0.60;;
31438;SDS011;18062;48.872;9.220;2023-11-19T08:22:01;0.60;;;0.60;;
31438;SDS011;18062;48.872;9.220;2023-11-19T08:24:27;1.47;;;0.70;;
31438;SDS011;18062;48.872;9.220;2023-11-19T08:26:53;0.60;;;0.60;;
31438;SDS011;18062;48.872;9.220;2023-11-19T08:29:19;0.53;;;0.53;;
31438;SDS011;18062;48.872;9.220;2023-11-19T08:31:46;0.50;;;0.50;;
31438;SDS011;18062;48.872;9.220;2023-11-19T08:34:12;0.50;;;0.50;;
31438;SDS011;18062;48.872;9.220;2023-11-19T08:36:38;0.50;;;0.50;;
31438;SDS011;18062;48.872;9.220;2023-11-19T08:39:04;0.50;;;0.50;;
31438;SDS011;18062;48.872;9.220;2023-11-19T08:41:30;0.50;;;0.50;;
31438;SDS011;18062;48.872;9.220;2023-11-19T08:43:58;0.60;;;0.60;;
31438;SDS011;18062;48.872;9.220;2023-11-19T08:46:24;1.70;;;0.53;;
31438;SDS011;18062;48.872;9.220;2023-11-19T08:48:51;0.53;;;0.53;;
31438;SDS011;18062;48.872;9.220;2023-11-19T08:51:17;1.80;;;0.90;;
31438;SDS011;18062;48.872;9.220;2023-11-19T08:53:43;1.27;;;1.00;;
31438;SDS011;18062;48.872;9.220;2023-11-19T08:56:09;0.83;;;0.77;;
31438;SDS011;18062;48.872;9.220;2023-11-19T08:58:35;3.13;;;0.90;;
31438;SDS011;18062;48.872;9.220;2023-11-19T09:01:01;0.80;;;0.80;;
31438;SDS011;18062;48.872;9.220;2023-11-19T09:03:30;0.73;;;0.73;;
31438;SDS011;18062;48.872;9.220;2023-11-19T09:05:56;1.07;;;0.90;;
31438;SDS011;18062;48.872;9.220;2023-11-19T09:08:22;1.83;;;0.70;;
31438;SDS011;18062;48.872;9.220;2023-11-19T09:10:49;0.93;;;0.83;;
31438;SDS011;18062;48.872;9.220;2023-11-19T09:13:15;2.03;;;0.90;;
31438;SDS011;18062;48.872;9.220;2023-11-19T09:15:41;0.73;;;0.73;;
31438;SDS011;18062;48.872;9.220;2023-11-19T09:18:07;0.63;;;0.63;;
31438;SDS011;18062;48.872;9.220;2023-11-19T09:20:34;1.43;;;0.63;;
31438;SDS011;18062;48.872;9.220;2023-11-19T09:23:03;0.80;;;0.50;;
31438;SDS011;18062;48.872;9.220;2023-11-19T09:25:30;1.33;;;1.03;;
31438;SDS011;18062;48.872;9.220;2023-11-19T09:27:56;2.57;;;1.30;;
31438;SDS011;18062;48.872;9.220;2023-11-19T09:30:22;1.10;;;0.80;;
31438;SDS011;18062;48.872;9.220;2023-11-19T09:32:48;1.13;;;0.90;;
31438;SDS011;18062;48.872;9.220;2023-11-19T09:35:14;0.60;;;0.60;;
31438;SDS011;18062;48.872;9.220;2023-11-19T09:37:41;0.77;;;0.77;;
31438;SDS011;18062;48.872;9.220;2023-11-19T09:40:07;0.73;;;0.63;;
31438;SDS011;18062;48.872;9.220;2023-11-19T09:42:42;1.23;;;0.60;;
31438;SDS011;18062;48.872;9.220;2023-11-19T09:45:12;2.53;;;0.60;;
31438;SDS011;18062;48.872;9.220;2023-11-19T09:47:40;0.57;;;0.57;;
31438;SDS011;18062;48.872;9.220;2023-11-19T09:50:06;0.80;;;0.80;;
31438;SDS011;18062;48.872;9.220;2023-11-19T09:52:33;0.70;;;0.70;;
31438;SDS011;18062;48.872;9.220;2023-11-19T09:54:59;1.10;;;0.70;;
31438;SDS011;18062;48.872;9.220;2023-11-19T09:57:25;0.80;;;0.80;;
31438;SDS011;18062;48.872;9.220;2023-11-19T09:59:51;2.43;;;0.70;;
31438;SDS011;18062;48.872;9.220;2023-11-19T10:02:18;0.67;;;0.67;;
31438;SDS011;18062;48.872;9.220;2023-11-19T10:04:44;0.70;;;0.70;;
31438;SDS011;18062;48.872;9.220;2023-11-19T10:07:12;0.97;;;0.70;;
31438;SDS011;18062;48.872;9.220;2023-11-19T10:09:38;0.70;;;0.70;;
31438;SDS011;18062;48.872;9.220;2023-11-19T10:12:04;0.53;;;0.53;;
31438;SDS011;18062;48.872;9.220;2023-11-19T10:14:30;2.13;;;0.83;;
31438;SDS011;18062;48.872;9.220;2023-11-19T10:16:58;2.97;;;0.60;;
31438;SDS011;18062;48.872;9.220;2023-11-19T10:19:29;0.73;;;0.63;;
31438;SDS011;18062;48.872;9.220;2023-11-19T10:21:55;0.63;;;0.53;;
31438;SDS011;18062;48.872;9.220;2023-11-19T10:24:31;0.70;;;0.70;;
31438;SDS011;18062;48.872;9.220;2023-11-19T10:26:59;0.60;;;0.60;;
31438;SDS011;18062;48.872;9.220;2023-11-19T10:29:25;1.10;;;0.70;;
31438;SDS011;18062;48.872;9.220;2023-11-19T10:32:03;0.80;;;0.80;;
31438;SDS011;18062;48.872;9.220;2023-11-19T10:34:30;1.83;;;0.73;;
31438;SDS011;18062;48.872;9.220;2023-11-19T10:36:56;1.07;;;0.70;;
31438;SDS011;18062;48.872;9.220;2023-11-19T10:39:22;1.07;;;0.60;;
31438;SDS011;18062;48.872;9.220;2023-11-19T10:41:49;1.77;;;0.80;;
31438;SDS011;18062;48.872;9.220;2023-11-19T10:44:34;1.80;;;0.80;;
31438;SDS011;18062;48.872;9.220;2023-11-19T10:47:01;0.43;;;0.37;;
31438;SDS011;18062;48.872;9.220;2023-11-19T10:49:27;0.60;;;0.60;;
31438;SDS011;18062;48.872;9.220;2023-11-19T10:51:53;0.70;;;0.50;;
31438;SDS011;18062;48.872;9.220;2023-11-19T10:54:22;0.70;;;0.70;;
31438;SDS011;18062;48.872;9.220;2023-11-19T10:56:55;1.50;;;0.73;;
31438;SDS011;18062;48.872;9.220;2023-11-19T10:59:25;0.77;;;0.70;;
31438;SDS011;18062;48.872;9.220;2023-11-19T11:01:53;0.70;;;0.60;;
31438;SDS011;18062;48.872;9.220;2023-11-19T11:04:22;1.07;;;0.50;;
31438;SDS011;18062;48.872;9.220;2023-11-19T11:06:48;0.60;;;0.60;;
31438;SDS011;18062;48.872;9.220;2023-11-19T11:09:15;0.87;;;0.70;;
31438;SDS011;18062;48.872;9.220;2023-11-19T11:11:44;0.93;;;0.60;;
31438;SDS011;18062;48.872;9.220;2023-11-19T11:14:15;1.07;;;0.60;;
31438;SDS011;18062;48.872;9.220;2023-11-19T11:16:42;1.63;;;0.87;;
31438;SDS011;18062;48.872;9.220;2023-11-19T11:19:11;0.53;;;0.53;;
31438;SDS011;18062;48.872;9.220;2023-11-19T11:21:38;1.03;;;0.80;;
31438;SDS011;18062;48.872;9.220;2023-11-19T11:37:28;1.37;;;0.67;;
31438;SDS011;18062;48.872;9.220;2023-11-19T11:40:00;0.80;;;0.70;;
31438;SDS011;18062;48.872;9.220;2023-11-19T11:42:30;0.80;;;0.70;;
31438;SDS011;18062;48.872;9.220;2023-11-19T11:45:13;0.60;;;0.60;;
31438;SDS011;18062;48.872;9.220;2023-11-19T11:55:23;3.90;;;0.57;;
31438;SDS011;18062;48.872;9.220;2023-11-19T11:57:49;0.60;;;0.60;;
31438;SDS011;18062;48.872;9.220;2023-11-19T12:00:48;1.00;;;0.87;;
31438;SDS011;18062;48.872;9.220;2023-11-19T12:03:08;2.00;;;0.77;;
31438;SDS011;18062;48.872;9.220;2023-11-19T12:05:41;1.07;;;0.60;;
31438;SDS011;18062;48.872;9.220;2023-11-19T12:08:07;2.13;;;0.87;;
31438;SDS011;18062;48.872;9.220;2023-11-19T12:10:45;1.83;;;0.60;;
31438;SDS011;18062;48.872;9.220;2023-11-19T12:13:14;2.20;;;0.77;;
31438;SDS011;18062;48.872;9.220;2023-11-19T12:20:54;1.07;;;0.83;;
31438;SDS011;18062;48.872;9.220;2023-11-19T12:23:20;1.07;;;0.80;;
31438;SDS011;18062;48.872;9.220;2023-11-19T12:25:46;3.63;;;0.80;;
31438;SDS011;18062;48.872;9.220;2023-11-19T12:28:12;3.60;;;0.80;;
31438;SDS011;18062;48.872;9.220;2023-11-19T12:30:38;1.13;;;0.67;;
31438;SDS011;18062;48.872;9.220;2023-11-19T12:33:08;1.40;;;0.73;;
31438;SDS011;18062;48.872;9.220;2023-11-19T12:35:40;1.67;;;0.73;;
31438;SDS011;18062;48.872;9.220;2023-11-19T12:38:07;2.20;;;0.60;;
31438;SDS011;18062;48.872;9.220;2023-11-19T12:40:33;1.00;;;0.70;;
31438;SDS011;18062;48.872;9.220;2023-11-19T12:42:59;1.00;;;0.80;;
31438;SDS011;18062;48.872;9.220;2023-11-19T12:45:34;0.60;;;0.60;;
31438;SDS011;18062;48.872;9.220;2023-11-19T12:48:06;3.13;;;0.70;;
31438;SDS011;18062;48.872;9.220;2023-11-19T12:53:18;2.30;;;0.77;;
31438;SDS011;18062;48.872;9.220;2023-11-19T12:55:44;0.50;;;0.50;;
31438;SDS011;18062;48.872;9.220;2023-11-19T12:58:10;0.80;;;0.50;;
31438;SDS011;18062;48.872;9.220;2023-11-19T13:00:36;0.60;;;0.60;;
31438;SDS011;18062;48.872;9.220;2023-11-19T13:03:02;1.27;;;0.70;;
31438;SDS011;18062;48.872;9.220;2023-11-19T13:05:34;1.10;;;0.70;;
31438;SDS011;18062;48.872;9.220;2023-11-19T13:08:08;0.90;;;0.63;;
31438;SDS011;18062;48.872;9.220;2023-11-19T13:10:49;0.93;;;0.70;;
31438;SDS011;18062;48.872;9.220;2023-11-19T13:13:16;0.60;;;0.60;;
31438;SDS011;18062;48.872;9.220;2023-11-19T13:15:42;1.57;;;0.63;;
31438;SDS011;18062;48.872;9.220;2023-11-19T13:18:11;2.83;;;0.90;;
31438;SDS011;18062;48.872;9.220;2023-11-19T13:20:39;0.70;;;0.70;;
31438;SDS011;18062;48.872;9.220;2023-11-19T13:23:05;1.43;;;0.60;;
31438;SDS011;18062;48.872;9.220;2023-11-19T13:25:40;0.60;;;0.50;;
31438;SDS011;18062;48.872;9.220;2023-11-19T13:28:06;1.13;;;0.50;;
31438;SDS011;18062;48.872;9.220;2023-11-19T13:30:32;1.92;;;0.70;;
31438;SDS011;18062;48.872;9.220;2023-11-19T13:32:58;1.97;;;0.77;;
31438;SDS011;18062;48.872;9.220;2023-11-19T13:35:25;1.27;;;0.50;;
31438;SDS011;18062;48.872;9.220;2023-11-19T13:37:53;1.80;;;0.80;;
31438;SDS011;18062;48.872;9.220;2023-11-19T13:40:19;2.07;;;0.57;;
31438;SDS011;18062;48.872;9.220;2023-11-19T13:42:47;0.50;;;0.50;;
31438;SDS011;18062;48.872;9.220;2023-11-19T13:45:13;1.23;;;0.80;;
31438;SDS011;18062;48.872;9.220;2023-11-19T13:47:41;0.80;;;0.80;;
31438;SDS011;18062;48.872;9.220;2023-11-19T13:50:10;0.67;;;0.67;;
31438;SDS011;18062;48.872;9.220;2023-11-19T13:52:37;2.10;;;0.57;;
31438;SDS011;18062;48.872;9.220;2023-11-19T13:55:08;0.67;;;0.60;;
31438;SDS011;18062;48.872;9.220;2023-11-19T13:57:34;0.90;;;0.60;;
31438;SDS011;18062;48.872;9.220;2023-11-19T14:00:01;2.00;;;0.70;;
31438;SDS011;18062;48.872;9.220;2023-11-19T14:02:30;1.43;;;0.67;;
31438;SDS011;18062;48.872;9.220;2023-11-19T14:04:56;0.83;;;0.63;;
31438;SDS011;18062;48.872;9.220;2023-11-19T14:07:22;2.63;;;0.70;;
31438;SDS011;18062;48.872;9.220;2023-11-19T14:09:48;2.50;;;0.70;;
31438;SDS011;18062;48.872;9.220;2023-11-19T14:12:15;1.27;;;0.67;;
31438;SDS011;18062;48.872;9.220;2023-11-19T14:14:41;0.70;;;0.70;;
31438;SDS011;18062;48.872;9.220;2023-11-19T14:17:07;2.63;;;0.60;;
31438;SDS011;18062;48.872;9.220;2023-11-19T14:19:33;0.70;;;0.50;;
31438;SDS011;18062;48.872;9.220;2023-11-19T14:21:59;1.33;;;0.53;;
31438;SDS011;18062;48.872;9.220;2023-11-19T14:24:25;1.03;;;0.50;;
31438;SDS011;18062;48.872;9.220;2023-11-19T14:26:52;0.93;;;0.50;;
31438;SDS011;18062;48.872;9.220;2023-11-19T14:29:18;0.70;;;0.50;;
31438;SDS011;18062;48.872;9.220;2023-11-19T14:31:44;0.50;;;0.50;;
31438;SDS011;18062;48.872;9.220;2023-11-19T14:34:10;1.70;;;0.70;;
31438;SDS011;18062;48.872;9.220;2023-11-19T14:36:36;0.60;;;0.60;;
31438;SDS011;18062;48.872;9.220;2023-11-19T14:39:02;0.50;;;0.50;;
31438;SDS011;18062;48.872;9.220;2023-11-19T14:41:28;0.50;;;0.50;;
31438;SDS011;18062;48.872;9.220;2023-11-19T14:43:54;1.13;;;0.70;;
31438;SDS011;18062;48.872;9.220;2023-11-19T14:46:21;1.57;;;0.50;;
31438;SDS011;18062;48.872;9.220;2023-11-19T14:48:47;0.80;;;0.60;;
31438;SDS011;18062;48.872;9.220;2023-11-19T14:51:13;0.70;;;0.70;;
31438;SDS011;18062;48.872;9.220;2023-11-19T14:53:39;0.63;;;0.50;;
31438;SDS011;18062;48.872;9.220;2023-11-19T14:56:05;2.03;;;0.57;;
31438;SDS011;18062;48.872;9.220;2023-11-19T14:58:32;1.03;;;0.80;;
31438;SDS011;18062;48.872;9.220;2023-11-19T15:00:58;1.50;;;0.77;;
31438;SDS011;18062;48.872;9.220;2023-11-19T15:03:24;2.23;;;0.97;;
31438;SDS011;18062;48.872;9.220;2023-11-19T15:05:51;0.80;;;0.70;;
31438;SDS011;18062;48.872;9.220;2023-11-19T15:08:20;1.47;;;0.80;;
31438;SDS011;18062;48.872;9.220;2023-11-19T15:10:46;0.87;;;0.67;;
31438;SDS011;18062;48.872;9.220;2023-11-19T15:13:12;0.83;;;0.53;;
31438;SDS011;18062;48.872;9.220;2023-11-19T15:15:38;1.57;;;0.70;;